sensor_id;sensor_type;location;lat;lon;timestamp;P1;durP1;ratioP1;P2;durP2;ratioP2
69956;SDS011;57283;54.816;9.482;2023-07-20T00:01:55;5.20;;;2.08;;
69956;SDS011;57283;54.816;9.482;2023-07-20T00:04:23;3.92;;;2.03;;
69956;SDS011;57283;54.816;9.482;2023-07-20T00:06:51;3.83;;;1.83;;
69956;SDS011;57283;54.816;9.482;2023-07-20T00:09:18;3.90;;;2.00;;
69956;SDS011;57283;54.816;9.482;2023-07-20T00:11:48;5.10;;;2.00;;
69956;SDS011;57283;54.816;9.482;2023-07-20T00:14:17;3.83;;;1.85;;
69956;SDS011;57283;54.816;9.482;2023-07-20T00:16:44;5.10;;;1.80;;
69956;SDS011;57283;54.816;9.482;2023-07-20T00:19:14;6.30;;;1.90;;
69956;SDS011;57283;54.816;9.482;2023-07-20T00:21:42;3.90;;;1.80;;
69956;SDS011;57283;54.816;9.482;2023-07-20T00:24:10;3.63;;;1.73;;
69956;SDS011;57283;54.816;9.482;2023-07-20T00:26:37;3.67;;;1.70;;
69956;SDS011;57283;54.816;9.482;2023-07-20T00:29:05;6.10;;;1.80;;
69956;SDS011;57283;54.816;9.482;2023-07-20T00:31:33;4.95;;;1.83;;
69956;SDS011;57283;54.816;9.482;2023-07-20T00:34:01;3.30;;;1.42;;
69956;SDS011;57283;54.816;9.482;2023-07-20T00:36:30;3.87;;;1.60;;
69956;SDS011;57283;54.816;9.482;2023-07-20T00:38:57;3.60;;;1.70;;
69956;SDS011;57283;54.816;9.482;2023-07-20T00:41:25;5.50;;;1.77;;
69956;SDS011;57283;54.816;9.482;2023-07-20T00:43:55;3.25;;;1.50;;
69956;SDS011;57283;54.816;9.482;2023-07-20T00:46:23;3.90;;;1.65;;
69956;SDS011;57283;54.816;9.482;2023-07-20T00:48:52;3.20;;;1.40;;
69956;SDS011;57283;54.816;9.482;2023-07-20T00:51:20;3.85;;;1.30;;
69956;SDS011;57283;54.816;9.482;2023-07-20T00:53:49;3.20;;;1.48;;
69956;SDS011;57283;54.816;9.482;2023-07-20T00:56:18;3.13;;;1.40;;
69956;SDS011;57283;54.816;9.482;2023-07-20T00:58:47;4.93;;;1.50;;
69956;SDS011;57283;54.816;9.482;2023-07-20T01:01:15;3.73;;;1.60;;
69956;SDS011;57283;54.816;9.482;2023-07-20T01:03:42;3.20;;;1.38;;
69956;SDS011;57283;54.816;9.482;2023-07-20T01:06:14;3.90;;;1.80;;
69956;SDS011;57283;54.816;9.482;2023-07-20T01:08:43;3.45;;;1.40;;
69956;SDS011;57283;54.816;9.482;2023-07-20T01:11:15;3.85;;;1.38;;
69956;SDS011;57283;54.816;9.482;2023-07-20T01:13:43;3.43;;;1.53;;
69956;SDS011;57283;54.816;9.482;2023-07-20T01:16:12;3.80;;;1.30;;
69956;SDS011;57283;54.816;9.482;2023-07-20T01:18:39;3.20;;;1.40;;
69956;SDS011;57283;54.816;9.482;2023-07-20T01:21:09;4.47;;;1.30;;
69956;SDS011;57283;54.816;9.482;2023-07-20T01:23:49;3.10;;;1.20;;
69956;SDS011;57283;54.816;9.482;2023-07-20T01:26:32;4.70;;;1.63;;
69956;SDS011;57283;54.816;9.482;2023-07-20T01:31:48;4.38;;;1.60;;
69956;SDS011;57283;54.816;9.482;2023-07-20T01:34:17;4.25;;;1.50;;
69956;SDS011;57283;54.816;9.482;2023-07-20T01:36:45;4.80;;;1.35;;
69956;SDS011;57283;54.816;9.482;2023-07-20T01:39:13;3.13;;;1.40;;
69956;SDS011;57283;54.816;9.482;2023-07-20T01:41:41;3.30;;;1.60;;
69956;SDS011;57283;54.816;9.482;2023-07-20T01:44:08;3.38;;;1.60;;
69956;SDS011;57283;54.816;9.482;2023-07-20T01:46:36;4.85;;;1.60;;
69956;SDS011;57283;54.816;9.482;2023-07-20T01:49:05;5.65;;;1.70;;
69956;SDS011;57283;54.816;9.482;2023-07-20T01:51:33;4.53;;;1.50;;
69956;SDS011;57283;54.816;9.482;2023-07-20T01:54:00;4.82;;;1.63;;
69956;SDS011;57283;54.816;9.482;2023-07-20T01:56:28;4.90;;;1.63;;
69956;SDS011;57283;54.816;9.482;2023-07-20T01:58:55;3.38;;;1.42;;
69956;SDS011;57283;54.816;9.482;2023-07-20T02:01:23;3.75;;;1.80;;
69956;SDS011;57283;54.816;9.482;2023-07-20T02:03:51;4.37;;;1.57;;
69956;SDS011;57283;54.816;9.482;2023-07-20T02:06:21;5.05;;;1.75;;
69956;SDS011;57283;54.816;9.482;2023-07-20T02:08:49;4.43;;;1.80;;
69956;SDS011;57283;54.816;9.482;2023-07-20T02:11:16;3.00;;;1.20;;
69956;SDS011;57283;54.816;9.482;2023-07-20T02:13:44;3.70;;;2.25;;
69956;SDS011;57283;54.816;9.482;2023-07-20T02:16:11;4.43;;;1.40;;
69956;SDS011;57283;54.816;9.482;2023-07-20T02:18:39;4.45;;;1.60;;
69956;SDS011;57283;54.816;9.482;2023-07-20T02:21:07;3.53;;;1.48;;
69956;SDS011;57283;54.816;9.482;2023-07-20T02:23:36;4.53;;;1.35;;
69956;SDS011;57283;54.816;9.482;2023-07-20T02:26:03;4.60;;;1.65;;
69956;SDS011;57283;54.816;9.482;2023-07-20T02:28:31;3.63;;;1.67;;
69956;SDS011;57283;54.816;9.482;2023-07-20T02:30:58;3.65;;;1.75;;
69956;SDS011;57283;54.816;9.482;2023-07-20T02:33:27;2.88;;;1.30;;
69956;SDS011;57283;54.816;9.482;2023-07-20T02:35:54;3.22;;;1.45;;
69956;SDS011;57283;54.816;9.482;2023-07-20T02:38:22;4.03;;;1.70;;
69956;SDS011;57283;54.816;9.482;2023-07-20T02:40:51;3.50;;;1.47;;
69956;SDS011;57283;54.816;9.482;2023-07-20T02:43:19;4.25;;;1.15;;
69956;SDS011;57283;54.816;9.482;2023-07-20T02:45:46;3.40;;;1.50;;
69956;SDS011;57283;54.816;9.482;2023-07-20T02:48:14;3.72;;;1.60;;
69956;SDS011;57283;54.816;9.482;2023-07-20T02:50:43;4.30;;;1.45;;
69956;SDS011;57283;54.816;9.482;2023-07-20T02:53:11;3.60;;;1.37;;
69956;SDS011;57283;54.816;9.482;2023-07-20T02:55:38;3.45;;;1.50;;
69956;SDS011;57283;54.816;9.482;2023-07-20T02:58:07;3.65;;;1.60;;
69956;SDS011;57283;54.816;9.482;2023-07-20T03:00:35;4.25;;;1.50;;
69956;SDS011;57283;54.816;9.482;2023-07-20T03:03:03;4.68;;;1.45;;
69956;SDS011;57283;54.816;9.482;2023-07-20T03:05:30;3.43;;;1.40;;
69956;SDS011;57283;54.816;9.482;2023-07-20T03:07:58;3.53;;;1.50;;
69956;SDS011;57283;54.816;9.482;2023-07-20T03:10:29;3.15;;;1.35;;
69956;SDS011;57283;54.816;9.482;2023-07-20T03:12:57;3.10;;;1.40;;
69956;SDS011;57283;54.816;9.482;2023-07-20T03:15:26;4.97;;;1.65;;
69956;SDS011;57283;54.816;9.482;2023-07-20T03:17:53;4.03;;;1.40;;
69956;SDS011;57283;54.816;9.482;2023-07-20T03:20:21;3.53;;;1.30;;
69956;SDS011;57283;54.816;9.482;2023-07-20T03:22:48;5.38;;;1.80;;
69956;SDS011;57283;54.816;9.482;2023-07-20T03:25:16;4.03;;;1.30;;
69956;SDS011;57283;54.816;9.482;2023-07-20T03:27:44;3.55;;;1.50;;
69956;SDS011;57283;54.816;9.482;2023-07-20T03:30:12;4.17;;;1.13;;
69956;SDS011;57283;54.816;9.482;2023-07-20T03:32:41;3.22;;;1.30;;
69956;SDS011;57283;54.816;9.482;2023-07-20T03:35:08;3.30;;;1.60;;
69956;SDS011;57283;54.816;9.482;2023-07-20T03:37:36;3.42;;;1.40;;
69956;SDS011;57283;54.816;9.482;2023-07-20T03:40:05;4.13;;;1.38;;
69956;SDS011;57283;54.816;9.482;2023-07-20T03:42:33;3.63;;;1.30;;
69956;SDS011;57283;54.816;9.482;2023-07-20T03:45:01;4.13;;;1.52;;
69956;SDS011;57283;54.816;9.482;2023-07-20T03:47:30;4.47;;;1.50;;
69956;SDS011;57283;54.816;9.482;2023-07-20T03:49:59;3.90;;;1.90;;
69956;SDS011;57283;54.816;9.482;2023-07-20T03:52:27;4.10;;;1.67;;
69956;SDS011;57283;54.816;9.482;2023-07-20T03:54:55;4.10;;;1.60;;
69956;SDS011;57283;54.816;9.482;2023-07-20T03:57:22;4.53;;;1.70;;
69956;SDS011;57283;54.816;9.482;2023-07-20T03:59:50;4.40;;;1.88;;
69956;SDS011;57283;54.816;9.482;2023-07-20T04:02:17;5.25;;;1.90;;
69956;SDS011;57283;54.816;9.482;2023-07-20T04:04:45;4.47;;;1.80;;
69956;SDS011;57283;54.816;9.482;2023-07-20T04:07:14;5.67;;;2.10;;
69956;SDS011;57283;54.816;9.482;2023-07-20T04:09:42;4.05;;;1.70;;
69956;SDS011;57283;54.816;9.482;2023-07-20T04:12:09;4.63;;;1.77;;
69956;SDS011;57283;54.816;9.482;2023-07-20T04:14:37;5.88;;;1.70;;
69956;SDS011;57283;54.816;9.482;2023-07-20T04:17:04;5.95;;;2.10;;
69956;SDS011;57283;54.816;9.482;2023-07-20T04:19:32;5.00;;;2.13;;
69956;SDS011;57283;54.816;9.482;2023-07-20T04:22:00;4.90;;;2.00;;
69956;SDS011;57283;54.816;9.482;2023-07-20T04:24:30;5.78;;;2.40;;
69956;SDS011;57283;54.816;9.482;2023-07-20T04:26:57;5.00;;;1.92;;
69956;SDS011;57283;54.816;9.482;2023-07-20T04:29:25;6.80;;;2.15;;
69956;SDS011;57283;54.816;9.482;2023-07-20T04:31:52;4.50;;;2.13;;
69956;SDS011;57283;54.816;9.482;2023-07-20T04:34:20;5.18;;;2.00;;
69956;SDS011;57283;54.816;9.482;2023-07-20T04:36:48;7.90;;;2.03;;
69956;SDS011;57283;54.816;9.482;2023-07-20T04:39:15;6.07;;;2.08;;
69956;SDS011;57283;54.816;9.482;2023-07-20T04:41:58;4.40;;;2.10;;
69956;SDS011;57283;54.816;9.482;2023-07-20T04:44:25;4.60;;;1.73;;
69956;SDS011;57283;54.816;9.482;2023-07-20T04:46:53;5.28;;;2.00;;
69956;SDS011;57283;54.816;9.482;2023-07-20T04:49:21;4.15;;;1.95;;
69956;SDS011;57283;54.816;9.482;2023-07-20T04:51:48;6.43;;;2.00;;
69956;SDS011;57283;54.816;9.482;2023-07-20T04:54:16;4.65;;;1.88;;
69956;SDS011;57283;54.816;9.482;2023-07-20T04:56:44;4.27;;;1.93;;
69956;SDS011;57283;54.816;9.482;2023-07-20T04:59:17;5.82;;;1.80;;
69956;SDS011;57283;54.816;9.482;2023-07-20T05:01:44;4.53;;;1.95;;
69956;SDS011;57283;54.816;9.482;2023-07-20T05:04:12;4.68;;;2.10;;
69956;SDS011;57283;54.816;9.482;2023-07-20T05:06:44;5.53;;;2.22;;
69956;SDS011;57283;54.816;9.482;2023-07-20T05:09:11;7.03;;;1.90;;
69956;SDS011;57283;54.816;9.482;2023-07-20T05:11:39;5.90;;;2.40;;
69956;SDS011;57283;54.816;9.482;2023-07-20T05:14:07;4.93;;;2.22;;
69956;SDS011;57283;54.816;9.482;2023-07-20T05:16:36;4.97;;;2.13;;
69956;SDS011;57283;54.816;9.482;2023-07-20T05:19:04;4.55;;;2.20;;
69956;SDS011;57283;54.816;9.482;2023-07-20T05:21:32;6.20;;;2.03;;
69956;SDS011;57283;54.816;9.482;2023-07-20T05:23:59;6.60;;;2.00;;
69956;SDS011;57283;54.816;9.482;2023-07-20T05:26:27;6.63;;;2.28;;
69956;SDS011;57283;54.816;9.482;2023-07-20T05:28:54;5.35;;;2.15;;
69956;SDS011;57283;54.816;9.482;2023-07-20T05:31:22;4.65;;;2.05;;
69956;SDS011;57283;54.816;9.482;2023-07-20T05:33:52;7.07;;;2.03;;
69956;SDS011;57283;54.816;9.482;2023-07-20T05:36:19;5.70;;;2.08;;
69956;SDS011;57283;54.816;9.482;2023-07-20T05:38:47;3.63;;;1.95;;
69956;SDS011;57283;54.816;9.482;2023-07-20T05:41:15;4.75;;;2.45;;
69956;SDS011;57283;54.816;9.482;2023-07-20T05:43:43;6.00;;;2.17;;
69956;SDS011;57283;54.816;9.482;2023-07-20T05:46:10;5.20;;;2.30;;
69956;SDS011;57283;54.816;9.482;2023-07-20T05:48:38;4.63;;;1.80;;
69956;SDS011;57283;54.816;9.482;2023-07-20T05:51:07;6.07;;;2.00;;
69956;SDS011;57283;54.816;9.482;2023-07-20T05:53:35;4.43;;;1.70;;
69956;SDS011;57283;54.816;9.482;2023-07-20T05:56:03;6.13;;;1.83;;
69956;SDS011;57283;54.816;9.482;2023-07-20T05:58:30;5.27;;;1.80;;
69956;SDS011;57283;54.816;9.482;2023-07-20T06:00:58;6.65;;;2.60;;
69956;SDS011;57283;54.816;9.482;2023-07-20T06:03:26;4.22;;;2.13;;
69956;SDS011;57283;54.816;9.482;2023-07-20T06:05:57;5.45;;;1.90;;
69956;SDS011;57283;54.816;9.482;2023-07-20T06:08:26;3.92;;;2.10;;
69956;SDS011;57283;54.816;9.482;2023-07-20T06:10:54;6.07;;;1.90;;
69956;SDS011;57283;54.816;9.482;2023-07-20T06:13:22;5.85;;;1.95;;
69956;SDS011;57283;54.816;9.482;2023-07-20T06:15:50;4.97;;;1.95;;
69956;SDS011;57283;54.816;9.482;2023-07-20T06:18:18;5.60;;;1.75;;
69956;SDS011;57283;54.816;9.482;2023-07-20T06:20:50;5.45;;;1.90;;
69956;SDS011;57283;54.816;9.482;2023-07-20T06:23:18;5.80;;;1.83;;
69956;SDS011;57283;54.816;9.482;2023-07-20T06:25:47;6.22;;;2.00;;
69956;SDS011;57283;54.816;9.482;2023-07-20T06:28:15;4.30;;;1.90;;
69956;SDS011;57283;54.816;9.482;2023-07-20T06:30:44;5.25;;;2.03;;
69956;SDS011;57283;54.816;9.482;2023-07-20T06:33:11;4.07;;;1.80;;
69956;SDS011;57283;54.816;9.482;2023-07-20T06:35:41;4.87;;;1.60;;
69956;SDS011;57283;54.816;9.482;2023-07-20T06:38:08;4.30;;;1.50;;
69956;SDS011;57283;54.816;9.482;2023-07-20T06:40:39;5.63;;;2.10;;
69956;SDS011;57283;54.816;9.482;2023-07-20T06:43:08;4.38;;;1.52;;
69956;SDS011;57283;54.816;9.482;2023-07-20T06:45:39;5.15;;;1.42;;
69956;SDS011;57283;54.816;9.482;2023-07-20T06:48:06;5.40;;;1.73;;
69956;SDS011;57283;54.816;9.482;2023-07-20T06:50:34;4.30;;;1.60;;
69956;SDS011;57283;54.816;9.482;2023-07-20T06:53:01;4.43;;;1.50;;
69956;SDS011;57283;54.816;9.482;2023-07-20T06:55:30;4.45;;;1.88;;
69956;SDS011;57283;54.816;9.482;2023-07-20T06:58:06;4.85;;;1.60;;
69956;SDS011;57283;54.816;9.482;2023-07-20T07:00:35;5.43;;;1.70;;
69956;SDS011;57283;54.816;9.482;2023-07-20T07:03:03;4.15;;;1.73;;
69956;SDS011;57283;54.816;9.482;2023-07-20T07:05:30;5.28;;;1.80;;
69956;SDS011;57283;54.816;9.482;2023-07-20T07:08:02;3.65;;;1.60;;
69956;SDS011;57283;54.816;9.482;2023-07-20T07:10:30;4.35;;;1.90;;
69956;SDS011;57283;54.816;9.482;2023-07-20T07:12:58;4.57;;;1.80;;
69956;SDS011;57283;54.816;9.482;2023-07-20T07:15:26;3.72;;;1.90;;
69956;SDS011;57283;54.816;9.482;2023-07-20T07:17:55;3.72;;;1.60;;
69956;SDS011;57283;54.816;9.482;2023-07-20T07:20:23;4.72;;;1.60;;
69956;SDS011;57283;54.816;9.482;2023-07-20T07:22:51;4.35;;;1.70;;
69956;SDS011;57283;54.816;9.482;2023-07-20T07:25:19;3.93;;;1.53;;
69956;SDS011;57283;54.816;9.482;2023-07-20T07:27:49;4.60;;;2.10;;
69956;SDS011;57283;54.816;9.482;2023-07-20T07:30:18;5.72;;;1.90;;
69956;SDS011;57283;54.816;9.482;2023-07-20T07:32:46;5.05;;;1.83;;
69956;SDS011;57283;54.816;9.482;2023-07-20T07:35:15;3.63;;;1.30;;
69956;SDS011;57283;54.816;9.482;2023-07-20T07:37:43;4.13;;;1.50;;
69956;SDS011;57283;54.816;9.482;2023-07-20T07:40:31;4.07;;;1.70;;
69956;SDS011;57283;54.816;9.482;2023-07-20T07:42:59;4.90;;;1.48;;
69956;SDS011;57283;54.816;9.482;2023-07-20T07:45:27;3.50;;;1.50;;
69956;SDS011;57283;54.816;9.482;2023-07-20T07:47:54;3.58;;;1.60;;
69956;SDS011;57283;54.816;9.482;2023-07-20T07:50:23;4.10;;;1.53;;
69956;SDS011;57283;54.816;9.482;2023-07-20T07:52:51;3.17;;;1.33;;
69956;SDS011;57283;54.816;9.482;2023-07-20T07:55:18;3.58;;;1.70;;
69956;SDS011;57283;54.816;9.482;2023-07-20T07:57:46;4.10;;;1.50;;
69956;SDS011;57283;54.816;9.482;2023-07-20T08:00:15;3.83;;;1.55;;
69956;SDS011;57283;54.816;9.482;2023-07-20T08:02:45;4.30;;;1.67;;
69956;SDS011;57283;54.816;9.482;2023-07-20T08:05:14;4.03;;;1.50;;
69956;SDS011;57283;54.816;9.482;2023-07-20T08:07:43;3.45;;;1.40;;
69956;SDS011;57283;54.816;9.482;2023-07-20T08:10:11;4.10;;;1.20;;
69956;SDS011;57283;54.816;9.482;2023-07-20T08:12:39;3.83;;;1.52;;
69956;SDS011;57283;54.816;9.482;2023-07-20T08:15:07;4.33;;;1.40;;
69956;SDS011;57283;54.816;9.482;2023-07-20T08:17:34;3.88;;;1.00;;
69956;SDS011;57283;54.816;9.482;2023-07-20T08:20:03;5.28;;;1.55;;
69956;SDS011;57283;54.816;9.482;2023-07-20T08:22:32;3.47;;;1.17;;
69956;SDS011;57283;54.816;9.482;2023-07-20T08:25:01;4.18;;;1.63;;
69956;SDS011;57283;54.816;9.482;2023-07-20T08:27:28;3.10;;;1.27;;
69956;SDS011;57283;54.816;9.482;2023-07-20T08:29:56;4.03;;;1.50;;
69956;SDS011;57283;54.816;9.482;2023-07-20T08:32:26;3.30;;;1.42;;
69956;SDS011;57283;54.816;9.482;2023-07-20T08:34:53;3.80;;;1.70;;
69956;SDS011;57283;54.816;9.482;2023-07-20T08:37:21;5.28;;;1.65;;
69956;SDS011;57283;54.816;9.482;2023-07-20T08:39:49;3.33;;;1.40;;
69956;SDS011;57283;54.816;9.482;2023-07-20T08:42:18;3.20;;;1.38;;
69956;SDS011;57283;54.816;9.482;2023-07-20T08:44:45;3.45;;;1.52;;
69956;SDS011;57283;54.816;9.482;2023-07-20T08:47:15;2.90;;;1.02;;
69956;SDS011;57283;54.816;9.482;2023-07-20T08:49:43;3.80;;;1.35;;
69956;SDS011;57283;54.816;9.482;2023-07-20T08:52:11;3.03;;;1.20;;
69956;SDS011;57283;54.816;9.482;2023-07-20T08:54:39;3.25;;;1.10;;
69956;SDS011;57283;54.816;9.482;2023-07-20T08:57:07;3.38;;;1.30;;
69956;SDS011;57283;54.816;9.482;2023-07-20T08:59:36;3.70;;;1.50;;
69956;SDS011;57283;54.816;9.482;2023-07-20T09:02:05;3.65;;;1.48;;
69956;SDS011;57283;54.816;9.482;2023-07-20T09:04:33;3.43;;;1.53;;
69956;SDS011;57283;54.816;9.482;2023-07-20T09:07:01;4.35;;;1.80;;
69956;SDS011;57283;54.816;9.482;2023-07-20T09:09:29;3.60;;;1.50;;
69956;SDS011;57283;54.816;9.482;2023-07-20T09:11:56;4.97;;;1.98;;
69956;SDS011;57283;54.816;9.482;2023-07-20T09:14:24;4.90;;;1.58;;
69956;SDS011;57283;54.816;9.482;2023-07-20T09:16:54;4.20;;;1.80;;
69956;SDS011;57283;54.816;9.482;2023-07-20T09:19:22;4.00;;;1.50;;
69956;SDS011;57283;54.816;9.482;2023-07-20T09:21:50;5.15;;;1.50;;
69956;SDS011;57283;54.816;9.482;2023-07-20T09:24:18;4.65;;;1.30;;
69956;SDS011;57283;54.816;9.482;2023-07-20T09:26:46;5.18;;;1.77;;
69956;SDS011;57283;54.816;9.482;2023-07-20T09:29:17;3.73;;;1.50;;
69956;SDS011;57283;54.816;9.482;2023-07-20T09:31:57;4.47;;;2.20;;
69956;SDS011;57283;54.816;9.482;2023-07-20T09:34:28;5.78;;;1.90;;
69956;SDS011;57283;54.816;9.482;2023-07-20T09:36:58;4.88;;;2.15;;
69956;SDS011;57283;54.816;9.482;2023-07-20T09:39:27;5.93;;;2.40;;
69956;SDS011;57283;54.816;9.482;2023-07-20T09:41:55;4.67;;;1.60;;
69956;SDS011;57283;54.816;9.482;2023-07-20T09:44:30;6.43;;;1.80;;
69956;SDS011;57283;54.816;9.482;2023-07-20T09:47:02;4.57;;;1.98;;
69956;SDS011;57283;54.816;9.482;2023-07-20T09:49:31;5.57;;;1.73;;
69956;SDS011;57283;54.816;9.482;2023-07-20T09:52:18;7.72;;;2.20;;
69956;SDS011;57283;54.816;9.482;2023-07-20T09:54:50;6.77;;;1.83;;
69956;SDS011;57283;54.816;9.482;2023-07-20T09:57:17;7.75;;;1.98;;
69956;SDS011;57283;54.816;9.482;2023-07-20T09:59:45;6.82;;;2.45;;
69956;SDS011;57283;54.816;9.482;2023-07-20T10:02:15;6.93;;;1.90;;
69956;SDS011;57283;54.816;9.482;2023-07-20T10:04:47;6.82;;;2.83;;
69956;SDS011;57283;54.816;9.482;2023-07-20T10:07:16;5.83;;;2.20;;
69956;SDS011;57283;54.816;9.482;2023-07-20T10:09:44;5.18;;;2.25;;
69956;SDS011;57283;54.816;9.482;2023-07-20T10:12:12;4.97;;;2.35;;
69956;SDS011;57283;54.816;9.482;2023-07-20T10:14:44;4.05;;;2.20;;
69956;SDS011;57283;54.816;9.482;2023-07-20T10:17:15;5.18;;;2.55;;
69956;SDS011;57283;54.816;9.482;2023-07-20T10:19:47;6.23;;;2.30;;
69956;SDS011;57283;54.816;9.482;2023-07-20T10:22:17;4.27;;;2.00;;
69956;SDS011;57283;54.816;9.482;2023-07-20T10:24:46;4.78;;;2.30;;
69956;SDS011;57283;54.816;9.482;2023-07-20T10:27:14;6.07;;;2.55;;
69956;SDS011;57283;54.816;9.482;2023-07-20T10:29:42;5.28;;;2.22;;
69956;SDS011;57283;54.816;9.482;2023-07-20T10:32:10;6.53;;;2.50;;
69956;SDS011;57283;54.816;9.482;2023-07-20T10:34:39;4.43;;;2.13;;
69956;SDS011;57283;54.816;9.482;2023-07-20T10:37:07;4.57;;;2.20;;
69956;SDS011;57283;54.816;9.482;2023-07-20T10:39:34;3.97;;;2.10;;
69956;SDS011;57283;54.816;9.482;2023-07-20T10:42:03;6.93;;;2.33;;
69956;SDS011;57283;54.816;9.482;2023-07-20T10:44:30;4.50;;;2.13;;
69956;SDS011;57283;54.816;9.482;2023-07-20T10:46:59;5.15;;;2.15;;
69956;SDS011;57283;54.816;9.482;2023-07-20T10:49:27;5.40;;;1.87;;
69956;SDS011;57283;54.816;9.482;2023-07-20T10:51:58;4.10;;;1.70;;
69956;SDS011;57283;54.816;9.482;2023-07-20T10:54:35;4.47;;;1.83;;
69956;SDS011;57283;54.816;9.482;2023-07-20T11:00:09;5.60;;;1.70;;
69956;SDS011;57283;54.816;9.482;2023-07-20T11:02:45;4.28;;;2.22;;
69956;SDS011;57283;54.816;9.482;2023-07-20T11:05:32;6.00;;;2.10;;
69956;SDS011;57283;54.816;9.482;2023-07-20T11:08:02;4.40;;;1.60;;
69956;SDS011;57283;54.816;9.482;2023-07-20T11:10:31;4.10;;;1.90;;
69956;SDS011;57283;54.816;9.482;2023-07-20T11:13:17;4.20;;;1.85;;
69956;SDS011;57283;54.816;9.482;2023-07-20T11:15:45;4.88;;;1.90;;
69956;SDS011;57283;54.816;9.482;2023-07-20T11:18:14;4.73;;;1.60;;
69956;SDS011;57283;54.816;9.482;2023-07-20T11:20:41;6.32;;;1.63;;
69956;SDS011;57283;54.816;9.482;2023-07-20T11:23:11;5.70;;;1.67;;
69956;SDS011;57283;54.816;9.482;2023-07-20T11:25:39;3.90;;;1.60;;
69956;SDS011;57283;54.816;9.482;2023-07-20T11:28:07;4.03;;;1.90;;
69956;SDS011;57283;54.816;9.482;2023-07-20T11:30:35;5.97;;;1.87;;
69956;SDS011;57283;54.816;9.482;2023-07-20T11:33:02;5.43;;;1.73;;
69956;SDS011;57283;54.816;9.482;2023-07-20T11:35:30;4.00;;;1.60;;
69956;SDS011;57283;54.816;9.482;2023-07-20T11:37:58;5.18;;;2.10;;
69956;SDS011;57283;54.816;9.482;2023-07-20T11:40:27;3.78;;;1.80;;
69956;SDS011;57283;54.816;9.482;2023-07-20T11:42:54;6.80;;;1.63;;
69956;SDS011;57283;54.816;9.482;2023-07-20T11:45:25;3.85;;;1.70;;
69956;SDS011;57283;54.816;9.482;2023-07-20T11:47:53;4.43;;;1.70;;
69956;SDS011;57283;54.816;9.482;2023-07-20T11:50:21;4.35;;;1.92;;
69956;SDS011;57283;54.816;9.482;2023-07-20T11:52:49;6.25;;;2.05;;
69956;SDS011;57283;54.816;9.482;2023-07-20T11:55:16;5.40;;;1.80;;
69956;SDS011;57283;54.816;9.482;2023-07-20T12:00:39;6.10;;;1.70;;
69956;SDS011;57283;54.816;9.482;2023-07-20T12:03:07;4.82;;;1.90;;
69956;SDS011;57283;54.816;9.482;2023-07-20T12:05:34;4.32;;;2.03;;
69956;SDS011;57283;54.816;9.482;2023-07-20T12:08:22;5.28;;;2.25;;
69956;SDS011;57283;54.816;9.482;2023-07-20T12:10:50;5.93;;;2.25;;
69956;SDS011;57283;54.816;9.482;2023-07-20T12:13:17;4.87;;;2.70;;
69956;SDS011;57283;54.816;9.482;2023-07-20T12:15:46;6.38;;;2.10;;
69956;SDS011;57283;54.816;9.482;2023-07-20T12:18:14;6.20;;;2.03;;
69956;SDS011;57283;54.816;9.482;2023-07-20T12:20:42;5.50;;;2.25;;
69956;SDS011;57283;54.816;9.482;2023-07-20T12:23:11;5.82;;;2.03;;
69956;SDS011;57283;54.816;9.482;2023-07-20T12:25:39;6.77;;;2.30;;
69956;SDS011;57283;54.816;9.482;2023-07-20T12:28:08;5.93;;;2.10;;
69956;SDS011;57283;54.816;9.482;2023-07-20T12:30:36;4.53;;;1.80;;
69956;SDS011;57283;54.816;9.482;2023-07-20T12:33:05;4.50;;;2.05;;
69956;SDS011;57283;54.816;9.482;2023-07-20T12:35:32;5.40;;;2.03;;
69956;SDS011;57283;54.816;9.482;2023-07-20T12:38:00;4.57;;;2.40;;
69956;SDS011;57283;54.816;9.482;2023-07-20T12:40:28;5.63;;;1.80;;
69956;SDS011;57283;54.816;9.482;2023-07-20T12:42:56;5.72;;;1.90;;
69956;SDS011;57283;54.816;9.482;2023-07-20T12:45:24;6.15;;;1.80;;
69956;SDS011;57283;54.816;9.482;2023-07-20T12:47:52;5.55;;;2.10;;
69956;SDS011;57283;54.816;9.482;2023-07-20T12:50:21;5.80;;;1.93;;
69956;SDS011;57283;54.816;9.482;2023-07-20T12:52:49;6.13;;;2.00;;
69956;SDS011;57283;54.816;9.482;2023-07-20T12:55:16;5.53;;;1.90;;
69956;SDS011;57283;54.816;9.482;2023-07-20T12:57:45;5.07;;;1.83;;
69956;SDS011;57283;54.816;9.482;2023-07-20T13:00:13;5.63;;;2.05;;
69956;SDS011;57283;54.816;9.482;2023-07-20T13:02:41;4.93;;;1.70;;
69956;SDS011;57283;54.816;9.482;2023-07-20T13:05:10;4.47;;;1.80;;
69956;SDS011;57283;54.816;9.482;2023-07-20T13:07:39;5.00;;;2.00;;
69956;SDS011;57283;54.816;9.482;2023-07-20T13:10:10;4.38;;;1.73;;
69956;SDS011;57283;54.816;9.482;2023-07-20T13:12:38;4.78;;;1.70;;
69956;SDS011;57283;54.816;9.482;2023-07-20T13:15:06;4.73;;;1.93;;
69956;SDS011;57283;54.816;9.482;2023-07-20T13:17:35;5.53;;;1.73;;
69956;SDS011;57283;54.816;9.482;2023-07-20T13:20:03;5.70;;;1.90;;
69956;SDS011;57283;54.816;9.482;2023-07-20T13:22:30;5.13;;;2.13;;
69956;SDS011;57283;54.816;9.482;2023-07-20T13:24:59;4.10;;;1.85;;
69956;SDS011;57283;54.816;9.482;2023-07-20T13:27:27;5.30;;;1.40;;
69956;SDS011;57283;54.816;9.482;2023-07-20T13:29:57;5.88;;;1.83;;
69956;SDS011;57283;54.816;9.482;2023-07-20T13:32:25;6.35;;;1.70;;
69956;SDS011;57283;54.816;9.482;2023-07-20T13:34:53;5.20;;;1.60;;
69956;SDS011;57283;54.816;9.482;2023-07-20T13:37:21;6.53;;;1.65;;
69956;SDS011;57283;54.816;9.482;2023-07-20T13:39:49;4.40;;;1.50;;
69956;SDS011;57283;54.816;9.482;2023-07-20T13:42:18;4.75;;;1.40;;
69956;SDS011;57283;54.816;9.482;2023-07-20T13:44:47;4.82;;;1.50;;
69956;SDS011;57283;54.816;9.482;2023-07-20T13:47:14;5.25;;;1.52;;
69956;SDS011;57283;54.816;9.482;2023-07-20T13:49:45;3.88;;;1.67;;
69956;SDS011;57283;54.816;9.482;2023-07-20T13:52:13;3.63;;;1.60;;
69956;SDS011;57283;54.816;9.482;2023-07-20T13:54:44;3.20;;;1.50;;
69956;SDS011;57283;54.816;9.482;2023-07-20T13:57:18;4.13;;;1.60;;
69956;SDS011;57283;54.816;9.482;2023-07-20T13:59:47;4.43;;;1.70;;
69956;SDS011;57283;54.816;9.482;2023-07-20T14:02:17;4.13;;;1.65;;
69956;SDS011;57283;54.816;9.482;2023-07-20T14:04:47;3.30;;;1.50;;
69956;SDS011;57283;54.816;9.482;2023-07-20T14:07:36;4.93;;;1.63;;
69956;SDS011;57283;54.816;9.482;2023-07-20T14:10:04;3.70;;;1.50;;
69956;SDS011;57283;54.816;9.482;2023-07-20T14:12:36;3.40;;;1.40;;
69956;SDS011;57283;54.816;9.482;2023-07-20T14:15:04;3.80;;;1.70;;
69956;SDS011;57283;54.816;9.482;2023-07-20T14:17:32;3.83;;;1.60;;
69956;SDS011;57283;54.816;9.482;2023-07-20T14:19:59;4.35;;;1.67;;
69956;SDS011;57283;54.816;9.482;2023-07-20T14:22:27;3.35;;;1.65;;
69956;SDS011;57283;54.816;9.482;2023-07-20T14:24:54;5.00;;;1.70;;
69956;SDS011;57283;54.816;9.482;2023-07-20T14:27:24;5.45;;;2.58;;
69956;SDS011;57283;54.816;9.482;2023-07-20T14:29:53;4.30;;;1.80;;
69956;SDS011;57283;54.816;9.482;2023-07-20T14:32:22;4.10;;;1.70;;
69956;SDS011;57283;54.816;9.482;2023-07-20T14:34:49;5.25;;;1.70;;
69956;SDS011;57283;54.816;9.482;2023-07-20T14:37:19;4.70;;;1.90;;
69956;SDS011;57283;54.816;9.482;2023-07-20T14:39:47;4.25;;;1.73;;
69956;SDS011;57283;54.816;9.482;2023-07-20T14:42:15;5.73;;;2.03;;
69956;SDS011;57283;54.816;9.482;2023-07-20T14:44:45;5.75;;;2.08;;
69956;SDS011;57283;54.816;9.482;2023-07-20T14:47:14;4.55;;;1.95;;
69956;SDS011;57283;54.816;9.482;2023-07-20T14:49:42;4.38;;;1.63;;
69956;SDS011;57283;54.816;9.482;2023-07-20T14:52:10;3.25;;;1.70;;
69956;SDS011;57283;54.816;9.482;2023-07-20T14:54:42;5.33;;;1.77;;
69956;SDS011;57283;54.816;9.482;2023-07-20T14:57:09;3.83;;;1.88;;
69956;SDS011;57283;54.816;9.482;2023-07-20T14:59:41;4.50;;;1.98;;
69956;SDS011;57283;54.816;9.482;2023-07-20T15:02:10;5.60;;;2.00;;
69956;SDS011;57283;54.816;9.482;2023-07-20T15:04:44;4.00;;;1.63;;
69956;SDS011;57283;54.816;9.482;2023-07-20T15:07:12;4.20;;;1.87;;